createdAt,value
2018-08-28T00:02:10.063Z,100574.00
2018-08-28T00:04:39.392Z,100572.41
2018-08-28T00:07:08.604Z,100577.55
2018-08-28T00:09:37.663Z,100574.55
2018-08-28T00:12:07.043Z,100577.59
2018-08-28T00:14:36.332Z,100581.05
2018-08-28T00:17:05.718Z,100582.28
2018-08-28T00:19:35.003Z,100580.16
2018-08-28T00:22:04.216Z,100581.20
2018-08-28T00:24:33.570Z,100579.05
2018-08-28T00:27:02.812Z,100588.25
2018-08-28T00:29:31.864Z,100586.88
2018-08-28T00:32:01.151Z,100582.13
2018-08-28T00:34:30.363Z,100584.95
2018-08-28T00:36:59.695Z,100582.48
2018-08-28T00:39:28.948Z,100586.73
2018-08-28T00:41:58.259Z,100592.73
2018-08-28T00:44:27.100Z,100592.17
2018-08-28T00:46:56.121Z,100593.97
2018-08-28T00:49:25.402Z,100600.13
2018-08-28T00:51:54.702Z,100602.20
2018-08-28T00:54:24.470Z,100599.14
2018-08-28T00:56:53.638Z,100603.39
2018-08-28T00:59:22.869Z,100607.02
2018-08-28T01:01:52.304Z,100607.83
2018-08-28T01:04:21.489Z,100604.52
2018-08-28T01:06:51.028Z,100602.31
2018-08-28T01:09:20.416Z,100610.48
2018-08-28T01:11:49.663Z,100600.33
2018-08-28T01:14:18.954Z,100599.33
2018-08-28T01:16:48.332Z,100599.52
2018-08-28T01:19:17.586Z,100604.91
2018-08-28T01:21:46.547Z,100609.35
2018-08-28T01:24:15.347Z,100602.52
2018-08-28T01:26:44.344Z,100599.30
2018-08-28T01:29:13.270Z,100598.48
2018-08-28T01:31:42.179Z,100597.70
2018-08-28T01:34:11.132Z,100603.63
2018-08-28T01:36:40.081Z,100601.44
2018-08-28T01:39:09.455Z,100602.69
2018-08-28T01:41:38.501Z,100600.73
2018-08-28T01:44:07.295Z,100610.82
2018-08-28T01:46:37.369Z,100600.63
2018-08-28T01:49:06.641Z,100602.05
2018-08-28T01:51:35.929Z,100601.21
2018-08-28T01:54:05.031Z,100596.55
2018-08-28T01:56:34.352Z,100590.05
2018-08-28T01:59:03.575Z,100585.33
2018-08-28T02:01:32.810Z,100589.70
2018-08-28T02:04:02.009Z,100588.59
2018-08-28T02:06:31.033Z,100585.84
2018-08-28T02:09:00.259Z,100581.52
2018-08-28T02:11:29.460Z,100582.23
2018-08-28T02:13:58.665Z,100579.40
2018-08-28T02:16:27.524Z,100576.14
2018-08-28T02:18:56.490Z,100583.42
2018-08-28T02:21:25.869Z,100575.33
2018-08-28T02:23:54.735Z,100579.42
2018-08-28T02:26:23.923Z,100578.38
2018-08-28T02:28:53.298Z,100573.84
2018-08-28T02:31:22.158Z,100574.39
2018-08-28T02:33:51.128Z,100579.88
2018-08-28T02:36:20.111Z,100582.50
2018-08-28T02:38:49.041Z,100591.31
2018-08-28T02:41:17.915Z,100581.16
2018-08-28T02:43:46.828Z,100598.62
2018-08-28T02:46:15.646Z,100591.80
2018-08-28T02:48:44.900Z,100583.19
2018-08-28T02:51:14.045Z,100587.70
2018-08-28T02:53:43.244Z,100586.16
2018-08-28T02:56:12.324Z,100585.23
2018-08-28T02:58:41.246Z,100592.22
2018-08-28T03:01:10.303Z,100580.98
2018-08-28T03:03:39.506Z,100589.55
2018-08-28T03:06:09.030Z,100595.20
2018-08-28T03:08:38.373Z,100592.06
2018-08-28T03:11:07.371Z,100599.53
2018-08-28T03:13:36.352Z,100594.06
2018-08-28T03:16:05.318Z,100595.30
2018-08-28T03:18:34.129Z,100601.31
2018-08-28T03:21:03.408Z,100594.53
2018-08-28T03:23:32.470Z,100596.85
2018-08-28T03:26:01.684Z,100607.09
2018-08-28T03:28:30.984Z,100607.88
2018-08-28T03:31:00.236Z,100605.27
2018-08-28T03:33:29.128Z,100604.72
2018-08-28T03:35:58.536Z,100609.66
2018-08-28T03:38:28.058Z,100617.91
2018-08-28T03:40:57.070Z,100617.05
2018-08-28T03:43:26.053Z,100614.50
2018-08-28T03:45:55.299Z,100615.63
2018-08-28T03:48:24.577Z,100623.39
2018-08-28T03:50:53.634Z,100622.51
2018-08-28T03:53:23.063Z,100620.41
2018-08-28T03:55:51.951Z,100625.34
2018-08-28T03:58:21.277Z,100612.39
2018-08-28T04:00:50.492Z,100623.02
2018-08-28T04:03:19.703Z,100629.30
2018-08-28T04:05:48.608Z,100627.23
2018-08-28T04:08:17.592Z,100632.20
2018-08-28T04:10:46.507Z,100637.31
2018-08-28T04:13:15.642Z,100626.79
2018-08-28T04:15:44.703Z,100627.80
2018-08-28T04:18:13.684Z,100641.20
2018-08-28T04:20:42.528Z,100609.38
2018-08-28T04:23:11.785Z,100633.45
2018-08-28T04:25:40.691Z,100640.69
2018-08-28T04:28:09.568Z,100641.77
2018-08-28T04:30:38.641Z,100629.64
2018-08-28T04:33:08.028Z,100643.83
2018-08-28T04:35:37.157Z,100638.32
2018-08-28T04:38:06.424Z,100635.35
2018-08-28T04:40:35.613Z,100648.71
2018-08-28T04:43:04.868Z,100640.47
2018-08-28T04:45:34.028Z,100640.47
2018-08-28T04:48:03.072Z,100636.58
2018-08-28T04:50:31.901Z,100647.16
2018-08-28T04:53:00.790Z,100649.23
2018-08-28T04:55:30.276Z,100649.77
2018-08-28T04:57:59.147Z,100656.03
2018-08-28T05:00:28.320Z,100654.02
2018-08-28T05:02:57.167Z,100653.91
2018-08-28T05:05:25.963Z,100659.83
2018-08-28T05:07:55.420Z,100670.14
2018-08-28T05:10:24.308Z,100669.36
2018-08-28T05:12:53.237Z,100670.38
2018-08-28T05:15:22.200Z,100674.66
2018-08-28T05:17:51.087Z,100681.28
2018-08-28T05:20:20.127Z,100684.11
2018-08-28T05:22:49.209Z,100684.67
2018-08-28T05:25:18.513Z,100695.02
2018-08-28T05:27:47.561Z,100689.95
2018-08-28T05:30:16.998Z,100695.88
2018-08-28T05:32:46.377Z,100694.20
2018-08-28T05:35:15.797Z,100691.14
2018-08-28T05:37:44.725Z,100702.40
2018-08-28T05:40:13.552Z,100687.91
2018-08-28T05:42:42.482Z,100691.64
2018-08-28T05:45:11.542Z,100693.84
2018-08-28T05:47:40.530Z,100693.20
2018-08-28T05:50:09.513Z,100697.34
2018-08-28T05:52:38.422Z,100700.31
2018-08-28T05:55:07.596Z,100699.23
2018-08-28T05:57:36.572Z,100699.43
2018-08-28T06:00:05.548Z,100698.01
2018-08-28T06:02:34.864Z,100702.94
2018-08-28T06:05:04.013Z,100708.11
2018-08-28T06:07:32.988Z,100708.44
2018-08-28T06:10:01.912Z,100710.58
2018-08-28T06:12:30.841Z,100709.73
2018-08-28T06:14:59.845Z,100717.60
2018-08-28T06:17:30.156Z,100719.98
2018-08-28T06:19:59.516Z,100727.50
2018-08-28T06:22:28.506Z,100729.06
2018-08-28T06:24:57.398Z,100736.86
2018-08-28T06:27:26.805Z,100740.23
2018-08-28T06:29:55.857Z,100745.02
2018-08-28T06:32:24.840Z,100744.20
2018-08-28T06:34:53.644Z,100750.33
2018-08-28T06:37:22.703Z,100752.58
2018-08-28T06:39:51.516Z,100752.52
2018-08-28T06:42:20.544Z,100750.02
2018-08-28T06:44:49.443Z,100752.36
2018-08-28T06:47:18.264Z,100756.64
2018-08-28T06:49:47.221Z,100757.23
2018-08-28T06:52:16.221Z,100760.58
2018-08-28T06:54:45.238Z,100763.63
2018-08-28T06:57:14.247Z,100762.97
2018-08-28T06:59:44.260Z,100767.90
2018-08-28T07:02:13.637Z,100769.44
2018-08-28T07:04:42.760Z,100769.06
2018-08-28T07:07:12.108Z,100776.07
2018-08-28T07:09:41.066Z,100775.06
2018-08-28T07:12:09.874Z,100781.94
2018-08-28T07:14:38.845Z,100779.04
2018-08-28T07:17:07.971Z,100783.78
2018-08-28T07:19:36.904Z,100784.17
2018-08-28T07:22:05.898Z,100771.28
2018-08-28T07:24:35.023Z,100775.91
2018-08-28T07:27:04.102Z,100774.05
2018-08-28T07:29:32.977Z,100778.88
2018-08-28T07:32:01.949Z,100776.98
2018-08-28T07:34:31.112Z,100784.26
2018-08-28T07:37:00.109Z,100786.75
2018-08-28T07:39:29.096Z,100775.09
2018-08-28T07:41:58.051Z,100773.73
2018-08-28T07:44:27.076Z,100775.58
2018-08-28T07:46:56.052Z,100785.08
2018-08-28T07:49:24.851Z,100794.03
2018-08-28T07:51:53.752Z,100783.16
2018-08-28T07:54:22.677Z,100793.02
2018-08-28T07:56:52.117Z,100797.03
2018-08-28T07:59:21.132Z,100796.31
2018-08-28T08:01:49.975Z,100795.28
2018-08-28T08:04:18.938Z,100790.67
2018-08-28T08:06:47.853Z,100788.44
2018-08-28T08:09:16.689Z,100787.62
2018-08-28T08:11:45.761Z,100794.03
2018-08-28T08:14:14.694Z,100798.52
2018-08-28T08:16:43.764Z,100797.13
2018-08-28T08:19:25.139Z,100805.54
2018-08-28T08:21:54.633Z,100789.59
2018-08-28T08:24:24.375Z,100798.33
2018-08-28T08:26:54.925Z,100793.44
2018-08-28T08:29:26.145Z,100801.17
2018-08-28T08:34:34.992Z,100795.77
2018-08-28T08:37:04.884Z,100786.70
2018-08-28T08:39:38.084Z,100797.81
2018-08-28T08:42:07.634Z,100778.08
2018-08-28T08:44:36.965Z,100802.45
2018-08-28T08:47:05.912Z,100792.50
2018-08-28T08:49:34.775Z,100787.02
2018-08-28T08:52:03.964Z,100789.62
2018-08-28T08:54:33.392Z,100788.33
2018-08-28T08:57:02.456Z,100782.22
2018-08-28T08:59:31.336Z,100786.83
2018-08-28T09:02:00.317Z,100786.58
2018-08-28T09:04:29.221Z,100784.16
2018-08-28T09:06:58.515Z,100787.98
2018-08-28T09:09:28.620Z,100791.95
2018-08-28T09:11:58.092Z,100785.03
2018-08-28T09:14:27.369Z,100788.12
2018-08-28T09:16:56.631Z,100790.22
2018-08-28T09:19:26.072Z,100804.06
2018-08-28T09:21:55.166Z,100789.34
2018-08-28T09:24:24.125Z,100803.88
2018-08-28T09:26:53.332Z,100795.30
2018-08-28T09:29:22.237Z,100800.00
2018-08-28T09:31:51.299Z,100807.34
2018-08-28T09:34:20.208Z,100794.37
2018-08-28T09:36:49.296Z,100815.52
2018-08-28T09:39:18.388Z,100808.05
2018-08-28T09:41:47.528Z,100816.73
2018-08-28T09:44:16.459Z,100809.59
2018-08-28T09:46:45.552Z,100805.41
2018-08-28T09:49:14.352Z,100814.70
2018-08-28T09:51:43.523Z,100817.76
2018-08-28T09:54:12.484Z,100817.30
2018-08-28T09:56:41.467Z,100816.96
2018-08-28T09:59:10.311Z,100807.21
2018-08-28T10:01:42.763Z,100798.52
2018-08-28T10:04:12.799Z,100802.28
2018-08-28T10:06:41.762Z,100809.30
2018-08-28T10:09:15.201Z,100803.55
2018-08-28T10:11:44.253Z,100811.38
2018-08-28T10:14:13.684Z,100790.30
2018-08-28T10:16:42.980Z,100813.59
2018-08-28T10:19:11.872Z,100801.70
2018-08-28T10:21:40.741Z,100809.44
2018-08-28T10:24:10.065Z,100807.14
2018-08-28T10:26:39.279Z,100791.10
2018-08-28T10:29:08.133Z,100802.70
2018-08-28T10:31:37.560Z,100793.44
2018-08-28T10:34:06.590Z,100811.92
2018-08-28T10:36:35.943Z,100795.70
2018-08-28T10:39:06.825Z,100799.38
2018-08-28T10:41:35.857Z,100797.75
2018-08-28T10:44:05.098Z,100798.45
2018-08-28T10:46:34.031Z,100803.20
2018-08-28T10:49:03.317Z,100794.69
2018-08-28T10:51:32.256Z,100794.80
2018-08-28T10:54:01.100Z,100767.55
2018-08-28T10:56:29.929Z,100799.48
2018-08-28T10:58:58.841Z,100795.65
2018-08-28T11:01:27.643Z,100782.55
2018-08-28T11:03:56.544Z,100789.13
2018-08-28T11:06:25.717Z,100799.93
2018-08-28T11:08:54.681Z,100788.49
2018-08-28T11:11:24.888Z,100793.04
2018-08-28T11:13:53.696Z,100793.27
2018-08-28T11:16:22.552Z,100793.05
2018-08-28T11:18:51.456Z,100793.23
2018-08-28T11:21:20.304Z,100794.41
2018-08-28T11:23:49.198Z,100801.88
2018-08-28T11:26:18.280Z,100787.56
2018-08-28T11:28:47.993Z,100787.95
2018-08-28T11:31:17.236Z,100787.41
2018-08-28T11:33:46.157Z,100780.84
2018-08-28T11:36:15.112Z,100782.77
2018-08-28T11:38:44.092Z,100781.58
2018-08-28T11:41:12.941Z,100781.02
2018-08-28T11:43:41.803Z,100796.36
2018-08-28T11:46:10.680Z,100788.57
2018-08-28T11:48:39.555Z,100797.12
2018-08-28T11:51:08.451Z,100785.87
2018-08-28T11:53:37.303Z,100778.41
2018-08-28T11:56:06.419Z,100782.98
2018-08-28T11:58:35.354Z,100775.41
2018-08-28T12:01:04.285Z,100779.50
2018-08-28T12:03:33.196Z,100790.17
2018-08-28T12:06:02.257Z,100787.64
2018-08-28T12:08:31.521Z,100789.10
2018-08-28T12:11:00.381Z,100789.73
2018-08-28T12:13:29.481Z,100774.25
2018-08-28T12:15:58.352Z,100797.22
2018-08-28T12:18:27.406Z,100803.05
2018-08-28T12:20:56.691Z,100780.20
2018-08-28T12:23:25.528Z,100783.52
2018-08-28T12:25:54.348Z,100770.70
2018-08-28T12:28:23.417Z,100761.09
2018-08-28T12:30:52.277Z,100778.81
2018-08-28T12:33:21.725Z,100770.06
2018-08-28T12:35:50.657Z,100763.03
2018-08-28T12:38:19.556Z,100758.29
2018-08-28T12:40:49.222Z,100765.30
2018-08-28T12:43:18.428Z,100766.26
2018-08-28T12:45:47.252Z,100751.91
2018-08-28T12:48:16.285Z,100772.38
2018-08-28T12:50:45.232Z,100762.16
2018-08-28T12:53:14.096Z,100755.42
2018-08-28T12:55:43.338Z,100770.97
2018-08-28T12:58:12.160Z,100752.20
2018-08-28T13:00:41.076Z,100769.58
2018-08-28T13:03:10.006Z,100756.48
2018-08-28T13:05:38.876Z,100762.31
2018-08-28T13:08:07.915Z,100759.54
2018-08-28T13:10:36.860Z,100763.07
2018-08-28T13:13:06.052Z,100753.14
2018-08-28T13:15:34.974Z,100759.67
2018-08-28T13:18:03.880Z,100754.81
2018-08-28T13:20:32.787Z,100759.56
2018-08-28T13:23:01.956Z,100757.14
2018-08-28T13:25:30.946Z,100752.88
2018-08-28T13:27:59.796Z,100756.08
2018-08-28T13:30:28.842Z,100754.64
2018-08-28T13:32:57.961Z,100747.95
2018-08-28T13:35:27.183Z,100748.09
2018-08-28T13:37:56.063Z,100746.47
2018-08-28T13:40:25.106Z,100758.17
2018-08-28T13:42:53.940Z,100754.95
2018-08-28T13:45:22.924Z,100751.14
2018-08-28T13:47:51.886Z,100755.27
2018-08-28T13:50:21.029Z,100757.16
2018-08-28T13:52:50.013Z,100749.09
2018-08-28T13:55:19.277Z,100759.34
2018-08-28T13:57:48.164Z,100757.74
2018-08-28T14:00:17.132Z,100747.95
2018-08-28T14:02:46.696Z,100747.47
2018-08-28T14:05:15.946Z,100748.92
2018-08-28T14:07:45.038Z,100751.69
2018-08-28T14:10:14.569Z,100755.17
2018-08-28T14:12:43.859Z,100742.39
2018-08-28T14:15:13.263Z,100744.53
2018-08-28T14:17:42.613Z,100739.47
2018-08-28T14:20:12.037Z,100742.86
2018-08-28T14:22:40.970Z,100736.98
2018-08-28T14:25:10.224Z,100736.91
2018-08-28T14:27:39.836Z,100739.06
2018-08-28T14:30:08.705Z,100742.95
2018-08-28T14:32:37.697Z,100739.64
2018-08-28T14:35:06.717Z,100743.48
2018-08-28T14:37:35.801Z,100740.62
2018-08-28T14:40:05.016Z,100740.92
2018-08-28T14:42:34.245Z,100753.81
2018-08-28T14:45:03.464Z,100749.48
2018-08-28T14:47:33.044Z,100742.98
2018-08-28T14:50:02.152Z,100739.47
2018-08-28T14:52:31.228Z,100742.33
2018-08-28T14:55:00.384Z,100751.31
2018-08-28T14:57:29.416Z,100754.55
2018-08-28T14:59:58.266Z,100742.80
2018-08-28T15:02:27.227Z,100738.70
2018-08-28T15:04:56.157Z,100740.17
2018-08-28T15:07:25.072Z,100736.00
2018-08-28T15:09:53.957Z,100735.89
2018-08-28T15:12:22.879Z,100727.01
2018-08-28T15:14:52.154Z,100737.48
2018-08-28T15:17:21.340Z,100726.87
2018-08-28T15:19:50.597Z,100728.72
2018-08-28T15:22:19.471Z,100732.44
2018-08-28T15:24:48.632Z,100728.47
2018-08-28T15:27:17.832Z,100722.52
2018-08-28T15:29:47.122Z,100728.11
2018-08-28T15:32:16.247Z,100729.81
2018-08-28T15:34:45.322Z,100728.97
2018-08-28T15:37:14.184Z,100733.36
2018-08-28T15:39:43.335Z,100740.90
2018-08-28T15:42:12.219Z,100736.25
2018-08-28T15:44:41.207Z,100745.42
2018-08-28T15:47:10.105Z,100744.45
2018-08-28T15:49:38.992Z,100740.28
2018-08-28T15:52:07.876Z,100746.15
2018-08-28T15:54:37.249Z,100744.30
2018-08-28T15:57:06.596Z,100748.85
2018-08-28T15:59:35.700Z,100756.16
2018-08-28T16:02:05.619Z,100756.38
2018-08-28T16:04:34.633Z,100750.30
2018-08-28T16:07:03.808Z,100754.78
2018-08-28T16:09:32.793Z,100764.05
2018-08-28T16:12:02.013Z,100756.93
2018-08-28T16:14:30.868Z,100760.27
2018-08-28T16:16:59.773Z,100767.12
2018-08-28T16:19:28.589Z,100773.87
2018-08-28T16:21:59.902Z,100763.78
2018-08-28T16:24:28.792Z,100768.45
2018-08-28T16:26:57.883Z,100770.84
2018-08-28T16:29:26.688Z,100776.94
2018-08-28T16:31:56.009Z,100771.23
2018-08-28T16:34:25.265Z,100779.67
2018-08-28T16:36:54.241Z,100779.67
2018-08-28T16:39:23.536Z,100782.80
2018-08-28T16:41:53.377Z,100780.65
2018-08-28T16:44:22.296Z,100785.70
2018-08-28T16:46:51.480Z,100789.91
2018-08-28T16:49:20.660Z,100790.88
2018-08-28T16:51:49.836Z,100788.59
2018-08-28T16:54:19.064Z,100799.33
2018-08-28T16:56:48.048Z,100796.73
2018-08-28T16:59:17.000Z,100802.28
2018-08-28T17:01:46.152Z,100803.50
2018-08-28T17:04:15.302Z,100805.18
2018-08-28T17:06:44.525Z,100809.06
2018-08-28T17:09:13.411Z,100817.49
2018-08-28T17:11:42.663Z,100820.30
2018-08-28T17:14:11.698Z,100826.55
2018-08-28T17:16:40.503Z,100825.78
2018-08-28T17:19:09.526Z,100831.77
2018-08-28T17:21:38.593Z,100829.56
2018-08-28T17:24:07.440Z,100831.98
2018-08-28T17:26:36.367Z,100828.59
2018-08-28T17:29:05.336Z,100829.89
2018-08-28T17:31:34.248Z,100829.16
2018-08-28T17:34:03.172Z,100830.86
2018-08-28T17:36:32.151Z,100835.03
2018-08-28T17:39:01.096Z,100836.95
2018-08-28T17:41:30.053Z,100833.09
2018-08-28T17:43:58.934Z,100834.64
2018-08-28T17:46:27.960Z,100839.61
2018-08-28T17:48:57.066Z,100843.69
2018-08-28T17:51:26.240Z,100837.80
2018-08-28T17:53:55.477Z,100836.66
2018-08-28T17:56:25.085Z,100833.36
2018-08-28T17:58:54.044Z,100832.97
2018-08-28T18:01:22.942Z,100831.59
2018-08-28T18:03:51.943Z,100836.95
2018-08-28T18:06:20.862Z,100844.57
2018-08-28T18:08:49.813Z,100838.55
2018-08-28T18:11:18.705Z,100849.27
2018-08-28T18:13:47.671Z,100843.17
2018-08-28T18:16:16.696Z,100846.84
2018-08-28T18:18:45.699Z,100851.89
2018-08-28T18:21:14.726Z,100852.62
2018-08-28T18:23:43.780Z,100857.19
2018-08-28T18:26:12.713Z,100854.13
2018-08-28T18:28:42.299Z,100867.22
2018-08-28T18:31:11.254Z,100867.59
2018-08-28T18:33:40.220Z,100867.23
2018-08-28T18:36:09.141Z,100869.32
2018-08-28T18:38:38.060Z,100871.23
2018-08-28T18:41:07.061Z,100876.77
2018-08-28T18:43:35.931Z,100881.33
2018-08-28T18:46:04.780Z,100886.55
2018-08-28T18:48:33.667Z,100890.81
2018-08-28T18:51:02.511Z,100885.48
2018-08-28T18:53:31.409Z,100890.47
2018-08-28T18:56:00.406Z,100887.33
2018-08-28T18:58:29.237Z,100887.84
2018-08-28T19:00:58.200Z,100885.81
2018-08-28T19:03:27.085Z,100896.17
2018-08-28T19:05:56.132Z,100883.45
2018-08-28T19:08:25.307Z,100885.91
2018-08-28T19:10:54.121Z,100886.39
2018-08-28T19:13:23.150Z,100897.27
2018-08-28T19:15:51.959Z,100882.69
2018-08-28T19:18:20.780Z,100874.59
2018-08-28T19:20:49.719Z,100890.25
2018-08-28T19:23:19.297Z,100884.54
2018-08-28T19:25:50.437Z,100883.01
2018-08-28T19:28:19.864Z,100884.98
2018-08-28T19:30:48.824Z,100888.16
2018-08-28T19:33:18.056Z,100883.05
2018-08-28T19:35:47.547Z,100860.98
2018-08-28T19:38:16.741Z,100885.47
2018-08-28T19:40:45.933Z,100888.97
2018-08-28T19:43:15.216Z,100883.14
2018-08-28T19:45:44.632Z,100881.06
2018-08-28T19:48:13.894Z,100885.59
2018-08-28T19:50:43.291Z,100885.69
2018-08-28T19:53:12.517Z,100882.00
2018-08-28T19:55:41.844Z,100887.80
2018-08-28T19:58:10.945Z,100883.09
2018-08-28T20:00:39.804Z,100892.40
2018-08-28T20:03:09.080Z,100883.30
2018-08-28T20:05:38.264Z,100885.53
2018-08-28T20:08:07.217Z,100877.47
2018-08-28T20:10:36.439Z,100881.67
2018-08-28T20:13:08.879Z,100867.64
2018-08-28T20:15:41.481Z,100868.28
2018-08-28T20:18:10.395Z,100864.73
2018-08-28T20:20:39.531Z,100869.66
2018-08-28T20:23:08.816Z,100875.28
2018-08-28T20:25:38.378Z,100862.05
2018-08-28T20:28:07.183Z,100857.32
2018-08-28T20:30:36.361Z,100865.33
2018-08-28T20:33:05.584Z,100855.88
2018-08-28T20:35:34.733Z,100866.25
2018-08-28T20:38:03.996Z,100865.70
2018-08-28T20:40:32.864Z,100866.06
2018-08-28T20:43:01.997Z,100877.09
2018-08-28T20:45:31.297Z,100868.59
2018-08-28T20:48:00.558Z,100869.30
2018-08-28T20:50:29.892Z,100866.19
2018-08-28T20:52:58.995Z,100865.66
2018-08-28T20:55:28.117Z,100865.56
2018-08-28T20:57:57.181Z,100863.14
2018-08-28T21:00:26.200Z,100863.63
2018-08-28T21:02:55.400Z,100863.41
2018-08-28T21:05:29.853Z,100874.58
2018-08-28T21:08:00.579Z,100870.13
2018-08-28T21:10:30.421Z,100867.28
2018-08-28T21:12:59.843Z,100871.02
2018-08-28T21:15:28.716Z,100871.83
2018-08-28T21:17:58.012Z,100868.72
2018-08-28T21:20:26.969Z,100875.19
2018-08-28T21:22:55.912Z,100870.30
2018-08-28T21:25:25.244Z,100873.58
2018-08-28T21:27:54.210Z,100860.92
2018-08-28T21:30:23.135Z,100870.95
2018-08-28T21:32:52.192Z,100881.42
2018-08-28T21:35:22.399Z,100865.45
2018-08-28T21:37:51.667Z,100865.73
2018-08-28T21:40:20.567Z,100868.14
2018-08-28T21:42:49.391Z,100861.58
2018-08-28T21:45:18.257Z,100862.91
2018-08-28T21:47:47.717Z,100857.89
2018-08-28T21:50:16.685Z,100861.55
2018-08-28T21:52:46.480Z,100859.75
2018-08-28T21:55:15.363Z,100854.65
2018-08-28T21:57:44.304Z,100849.55
2018-08-28T22:00:13.591Z,100853.05
2018-08-28T22:02:42.518Z,100844.88
2018-08-28T22:05:11.504Z,100852.25
2018-08-28T22:07:41.349Z,100848.80
2018-08-28T22:10:10.682Z,100849.16
2018-08-28T22:12:39.684Z,100848.37
2018-08-28T22:15:13.260Z,100855.25
2018-08-28T22:17:42.937Z,100848.72
2018-08-28T22:20:11.902Z,100847.10
2018-08-28T22:22:40.723Z,100843.72
2018-08-28T22:25:10.221Z,100844.55
2018-08-28T22:27:39.662Z,100836.91
2018-08-28T22:30:09.490Z,100850.56
2018-08-28T22:32:38.672Z,100846.77
2018-08-28T22:35:07.671Z,100844.27
2018-08-28T22:37:36.674Z,100841.22
2018-08-28T22:40:06.993Z,100842.70
2018-08-28T22:42:35.932Z,100840.13
2018-08-28T22:45:05.324Z,100841.23
2018-08-28T22:47:34.644Z,100836.88
2018-08-28T22:50:03.920Z,100839.24
2018-08-28T22:52:32.911Z,100841.05
2018-08-28T22:55:01.883Z,100831.48
2018-08-28T22:57:30.760Z,100830.72
2018-08-28T22:59:59.980Z,100830.77
2018-08-28T23:02:28.915Z,100832.62
2018-08-28T23:04:58.272Z,100830.64
2018-08-28T23:07:27.145Z,100826.55
2018-08-28T23:09:56.285Z,100827.00
2018-08-28T23:12:25.730Z,100834.63
2018-08-28T23:14:54.725Z,100821.72
2018-08-28T23:17:23.590Z,100820.89
2018-08-28T23:19:52.832Z,100816.80
2018-08-28T23:22:22.004Z,100814.70
2018-08-28T23:24:51.753Z,100815.16
2018-08-28T23:27:20.581Z,100809.58
2018-08-28T23:29:49.612Z,100817.69
2018-08-28T23:32:18.544Z,100819.95
2018-08-28T23:34:47.827Z,100813.14
2018-08-28T23:37:16.745Z,100819.95
2018-08-28T23:39:45.971Z,100814.67
2018-08-28T23:42:15.148Z,100813.89
2018-08-28T23:44:44.210Z,100827.36
2018-08-28T23:47:13.132Z,100824.09
2018-08-28T23:49:41.941Z,100819.64
2018-08-28T23:52:10.868Z,100830.44
2018-08-28T23:54:40.075Z,100820.97
2018-08-28T23:57:09.041Z,100830.23
2018-08-28T23:59:38.287Z,100836.52
